Gladstone Airport
YGLA : now visible

Airfield :











YOU CAN JOIN US ON...

 
LOGIN :

Register | Disclaimer

   EN    FR    IT 

 









Legend :    VFR   Marginal VFR   IFR   Intensive IFR   Very Intensive IFR
Visi :
Ceiling :
>= 8 km
>= 3000ft
5 to 8 km
1000 to 3000 ft
1500m to 5 km
500 to 1000 ft
800 to 1500m
200 to 500 ft
< 800m
< 200 ft
Symbols :   Thunderstorms  Fog  Heavy snow  Heavy precipitations  Wind > 20 kt






- Airport Elevation : 64 ft
- IATA code : GLT


YGLA - Gladstone

CURRENT METAR :
  • 280000Z AUTO 13010KT 9999 // ////// 28/23 Q1012 RF00.0/000.0

EXPIRED METARs :
  • 272330Z AUTO 13010KT 9999 // ////// 28/23 Q1012 RF00.0/000.0
  • 272300Z AUTO 14011KT 9999 // ////// 26/22 Q1012
  • 272230Z AUTO 13010KT 3400 // SCT014 BKN020 BKN027 25/23 Q1012
  • 272218Z AUTO 13009KT 5000 // BKN018 BKN027 BKN034 26/23 Q1012
  • 272130Z AUTO 14007KT 9999 // ////// 26/22 Q1011 RF00.0/000.0

TAF TAF YGLA
Valid from the 28 at 00:00 until the 28 at 12:00 UTC


272334Z 2800/2812 11012KT 9999 -SHRA SCT020 SCT035 INTER 2800/2812 4000 SHRA BKN010



MET'MAP, your aeronautical weather chart ! - Copyright ORBIFLY December 2007 - Disclaimer

ORBIFLY MET'MAP TEAM :

Programming & Development : Alexandra Zaïnal
Concept & original design : Baudouin d'Aumeries
Assistance for programming : Marc-Olivier Méhu
Technical & hardware support : Manuel Goepfert

Contact : metmap@orbifly.com




SOURCES & CREDITS :

   NOAA       Earth
Advisory